sensor_id;sensor_type;location;lat;lon;timestamp;pressure;altitude;pressure_sealevel;temperature;humidity
50123;BME280;36021;48.670;6.184;2022-07-30T00:00:23;99139.66;;;22.54;100.00
50123;BME280;36021;48.670;6.184;2022-07-30T00:02:49;99139.22;;;22.52;100.00
50123;BME280;36021;48.670;6.184;2022-07-30T00:05:15;99144.41;;;22.50;100.00
50123;BME280;36021;48.670;6.184;2022-07-30T00:07:40;99144.75;;;22.48;100.00
50123;BME280;36021;48.670;6.184;2022-07-30T00:10:06;99143.97;;;22.48;100.00
50123;BME280;36021;48.670;6.184;2022-07-30T00:12:32;99144.00;;;22.51;100.00
50123;BME280;36021;48.670;6.184;2022-07-30T00:14:57;99146.47;;;22.53;100.00
50123;BME280;36021;48.670;6.184;2022-07-30T00:17:23;99138.03;;;22.53;100.00
50123;BME280;36021;48.670;6.184;2022-07-30T00:19:51;99131.59;;;22.52;100.00
50123;BME280;36021;48.670;6.184;2022-07-30T00:22:17;99126.44;;;22.54;100.00
50123;BME280;36021;48.670;6.184;2022-07-30T00:24:42;99130.44;;;22.53;100.00
50123;BME280;36021;48.670;6.184;2022-07-30T00:27:08;99129.69;;;22.56;100.00
50123;BME280;36021;48.670;6.184;2022-07-30T00:29:34;99140.09;;;22.56;100.00
50123;BME280;36021;48.670;6.184;2022-07-30T00:31:59;99132.84;;;22.55;100.00
50123;BME280;36021;48.670;6.184;2022-07-30T00:34:25;99132.84;;;22.55;100.00
50123;BME280;36021;48.670;6.184;2022-07-30T00:36:51;99140.09;;;22.56;100.00
50123;BME280;36021;48.670;6.184;2022-07-30T00:39:17;99130.84;;;22.55;100.00
50123;BME280;36021;48.670;6.184;2022-07-30T00:44:22;99128.50;;;22.57;100.00
50123;BME280;36021;48.670;6.184;2022-07-30T00:46:50;99128.03;;;22.55;100.00
50123;BME280;36021;48.670;6.184;2022-07-30T00:49:16;99124.81;;;22.53;100.00
50123;BME280;36021;48.670;6.184;2022-07-30T00:51:41;99139.13;;;22.48;100.00
50123;BME280;36021;48.670;6.184;2022-07-30T00:54:07;99136.66;;;22.43;100.00
50123;BME280;36021;48.670;6.184;2022-07-30T00:56:33;99138.06;;;22.33;100.00
50123;BME280;36021;48.670;6.184;2022-07-30T00:58:59;99134.00;;;22.31;100.00
50123;BME280;36021;48.670;6.184;2022-07-30T01:01:24;99138.78;;;22.30;100.00
50123;BME280;36021;48.670;6.184;2022-07-30T01:03:51;99145.50;;;22.26;100.00
50123;BME280;36021;48.670;6.184;2022-07-30T01:06:17;99147.38;;;22.18;100.00
50123;BME280;36021;48.670;6.184;2022-07-30T01:08:42;99146.09;;;22.16;100.00
50123;BME280;36021;48.670;6.184;2022-07-30T01:11:09;99148.09;;;22.15;100.00
50123;BME280;36021;48.670;6.184;2022-07-30T01:13:41;99145.66;;;22.14;100.00
50123;BME280;36021;48.670;6.184;2022-07-30T01:16:08;99149.66;;;22.13;100.00
50123;BME280;36021;48.670;6.184;2022-07-30T01:18:38;99152.44;;;22.13;100.00
50123;BME280;36021;48.670;6.184;2022-07-30T01:21:31;99156.91;;;22.14;100.00
50123;BME280;36021;48.670;6.184;2022-07-30T01:24:08;99151.19;;;22.10;100.00
50123;BME280;36021;48.670;6.184;2022-07-30T01:26:36;99156.72;;;22.07;100.00
50123;BME280;36021;48.670;6.184;2022-07-30T01:29:03;99152.75;;;22.08;100.00
50123;BME280;36021;48.670;6.184;2022-07-30T01:31:30;99153.41;;;22.01;100.00
50123;BME280;36021;48.670;6.184;2022-07-30T01:33:57;99152.69;;;22.04;100.00
50123;BME280;36021;48.670;6.184;2022-07-30T01:36:26;99152.75;;;22.08;100.00
50123;BME280;36021;48.670;6.184;2022-07-30T01:38:52;99151.56;;;22.09;100.00
50123;BME280;36021;48.670;6.184;2022-07-30T01:41:19;99157.63;;;22.11;100.00
50123;BME280;36021;48.670;6.184;2022-07-30T01:43:45;99155.72;;;22.15;100.00
50123;BME280;36021;48.670;6.184;2022-07-30T01:46:13;99161.78;;;22.17;100.00
50123;BME280;36021;48.670;6.184;2022-07-30T01:48:41;99153.66;;;22.12;100.00
50123;BME280;36021;48.670;6.184;2022-07-30T01:51:11;99158.66;;;22.03;100.00
50123;BME280;36021;48.670;6.184;2022-07-30T01:53:39;99157.13;;;22.05;100.00
50123;BME280;36021;48.670;6.184;2022-07-30T01:56:08;99151.34;;;21.82;100.00
50123;BME280;36021;48.670;6.184;2022-07-30T01:58:38;99157.16;;;21.90;100.00
50123;BME280;36021;48.670;6.184;2022-07-30T02:01:15;99150.06;;;21.96;100.00
50123;BME280;36021;48.670;6.184;2022-07-30T02:03:41;99152.16;;;21.99;100.00
50123;BME280;36021;48.670;6.184;2022-07-30T02:06:13;99150.69;;;22.05;100.00
50123;BME280;36021;48.670;6.184;2022-07-30T02:11:17;99153.41;;;22.01;100.00
50123;BME280;36021;48.670;6.184;2022-07-30T02:14:13;99153.41;;;22.01;100.00
50123;BME280;36021;48.670;6.184;2022-07-30T02:16:43;99149.66;;;22.13;100.00
50123;BME280;36021;48.670;6.184;2022-07-30T02:19:15;99148.75;;;22.09;100.00
50123;BME280;36021;48.670;6.184;2022-07-30T02:21:43;99148.25;;;21.88;100.00
50123;BME280;36021;48.670;6.184;2022-07-30T02:24:24;99153.16;;;21.91;100.00
50123;BME280;36021;48.670;6.184;2022-07-30T02:26:55;99146.47;;;21.79;100.00
50123;BME280;36021;48.670;6.184;2022-07-30T02:29:22;99146.66;;;21.71;100.00
50123;BME280;36021;48.670;6.184;2022-07-30T02:31:49;99152.94;;;21.64;100.00
50123;BME280;36021;48.670;6.184;2022-07-30T02:34:17;99154.31;;;21.55;100.00
50123;BME280;36021;48.670;6.184;2022-07-30T02:36:46;99145.81;;;21.51;100.00
50123;BME280;36021;48.670;6.184;2022-07-30T02:39:13;99136.78;;;21.42;100.00
50123;BME280;36021;48.670;6.184;2022-07-30T02:41:41;99151.72;;;21.46;100.00
50123;BME280;36021;48.670;6.184;2022-07-30T02:44:10;99148.09;;;21.46;100.00
50123;BME280;36021;48.670;6.184;2022-07-30T02:46:38;99148.72;;;21.39;100.00
50123;BME280;36021;48.670;6.184;2022-07-30T02:49:28;99149.53;;;21.40;100.00
50123;BME280;36021;48.670;6.184;2022-07-30T02:51:54;99145.56;;;21.25;100.00
50123;BME280;36021;48.670;6.184;2022-07-30T02:54:21;99144.94;;;21.16;100.00
50123;BME280;36021;48.670;6.184;2022-07-30T02:56:49;99142.94;;;21.16;100.00
50123;BME280;36021;48.670;6.184;2022-07-30T02:59:16;99138.94;;;21.02;100.00
50123;BME280;36021;48.670;6.184;2022-07-30T03:01:47;99143.81;;;21.05;100.00
50123;BME280;36021;48.670;6.184;2022-07-30T03:04:15;99148.59;;;21.04;100.00
50123;BME280;36021;48.670;6.184;2022-07-30T03:06:44;99137.75;;;21.03;100.00
50123;BME280;36021;48.670;6.184;2022-07-30T03:09:11;99141.09;;;20.93;100.00
50123;BME280;36021;48.670;6.184;2022-07-30T03:11:37;99138.72;;;20.95;100.00
50123;BME280;36021;48.670;6.184;2022-07-30T03:14:03;99145.66;;;21.13;100.00
50123;BME280;36021;48.670;6.184;2022-07-30T03:16:31;99143.53;;;20.94;100.00
50123;BME280;36021;48.670;6.184;2022-07-30T03:19:02;99142.19;;;21.04;100.00
50123;BME280;36021;48.670;6.184;2022-07-30T03:21:30;99137.28;;;21.01;100.00
50123;BME280;36021;48.670;6.184;2022-07-30T03:24:01;99143.63;;;20.98;100.00
50123;BME280;36021;48.670;6.184;2022-07-30T03:26:29;99139.09;;;20.77;100.00
50123;BME280;36021;48.670;6.184;2022-07-30T03:28:55;99146.69;;;20.77;100.00
50123;BME280;36021;48.670;6.184;2022-07-30T03:31:22;99139.72;;;20.71;100.00
50123;BME280;36021;48.670;6.184;2022-07-30T03:33:49;99151.66;;;20.68;100.00
50123;BME280;36021;48.670;6.184;2022-07-30T03:36:16;99142.66;;;20.62;100.00
50123;BME280;36021;48.670;6.184;2022-07-30T03:38:42;99145.94;;;20.64;100.00
50123;BME280;36021;48.670;6.184;2022-07-30T03:41:09;99148.78;;;20.52;100.00
50123;BME280;36021;48.670;6.184;2022-07-30T03:43:37;99149.59;;;20.53;100.00
50123;BME280;36021;48.670;6.184;2022-07-30T03:46:05;99147.34;;;20.58;100.00
50123;BME280;36021;48.670;6.184;2022-07-30T03:48:35;99145.03;;;20.60;100.00
50123;BME280;36021;48.670;6.184;2022-07-30T03:51:05;99149.81;;;20.60;100.00
50123;BME280;36021;48.670;6.184;2022-07-30T03:53:31;99143.16;;;20.64;100.00
50123;BME280;36021;48.670;6.184;2022-07-30T03:56:17;99144.03;;;20.68;100.00
50123;BME280;36021;48.670;6.184;2022-07-30T03:59:06;99142.44;;;20.67;100.00
50123;BME280;36021;48.670;6.184;2022-07-30T04:01:35;99146.06;;;20.68;100.00
50123;BME280;36021;48.670;6.184;2022-07-30T04:04:15;99151.06;;;20.62;100.00
50123;BME280;36021;48.670;6.184;2022-07-30T04:06:41;99154.78;;;20.66;100.00
50123;BME280;36021;48.670;6.184;2022-07-30T04:09:10;99153.16;;;20.65;100.00
50123;BME280;36021;48.670;6.184;2022-07-30T04:11:37;99157.25;;;20.40;100.00
50123;BME280;36021;48.670;6.184;2022-07-30T04:14:04;99163.06;;;20.47;100.00
50123;BME280;36021;48.670;6.184;2022-07-30T04:16:50;99161.47;;;20.34;100.00
50123;BME280;36021;48.670;6.184;2022-07-30T04:19:34;99148.19;;;20.31;100.00
50123;BME280;36021;48.670;6.184;2022-07-30T04:22:03;99159.53;;;20.10;100.00
50123;BME280;36021;48.670;6.184;2022-07-30T04:24:32;99166.94;;;19.91;100.00
50123;BME280;36021;48.670;6.184;2022-07-30T04:27:00;99160.22;;;19.80;100.00
50123;BME280;36021;48.670;6.184;2022-07-30T04:29:26;99165.66;;;19.88;100.00
50123;BME280;36021;48.670;6.184;2022-07-30T04:31:53;99167.16;;;19.98;100.00
50123;BME280;36021;48.670;6.184;2022-07-30T04:34:54;99179.41;;;20.05;100.00
50123;BME280;36021;48.670;6.184;2022-07-30T04:37:40;99174.75;;;19.97;100.00
50123;BME280;36021;48.670;6.184;2022-07-30T04:40:06;99173.50;;;19.83;100.00
50123;BME280;36021;48.670;6.184;2022-07-30T04:42:31;99172.19;;;19.80;100.00
50123;BME280;36021;48.670;6.184;2022-07-30T04:45:09;99185.59;;;19.87;100.00
50123;BME280;36021;48.670;6.184;2022-07-30T04:47:48;99191.41;;;19.94;100.00
50123;BME280;36021;48.670;6.184;2022-07-30T04:50:50;99187.53;;;20.10;100.00
50123;BME280;36021;48.670;6.184;2022-07-30T04:53:19;99183.47;;;20.08;100.00
50123;BME280;36021;48.670;6.184;2022-07-30T04:55:53;99192.78;;;20.12;100.00
50123;BME280;36021;48.670;6.184;2022-07-30T04:58:26;99197.66;;;20.27;100.00
50123;BME280;36021;48.670;6.184;2022-07-30T05:00:53;99195.69;;;20.27;100.00
50123;BME280;36021;48.670;6.184;2022-07-30T05:03:24;99193.81;;;20.32;100.00
50123;BME280;36021;48.670;6.184;2022-07-30T05:05:52;99204.63;;;20.33;100.00
50123;BME280;36021;48.670;6.184;2022-07-30T05:08:18;99206.50;;;20.29;100.00
50123;BME280;36021;48.670;6.184;2022-07-30T05:10:44;99206.06;;;20.27;100.00
50123;BME280;36021;48.670;6.184;2022-07-30T05:13:12;99213.97;;;20.37;100.00
50123;BME280;36021;48.670;6.184;2022-07-30T05:15:39;99213.03;;;20.33;100.00
50123;BME280;36021;48.670;6.184;2022-07-30T05:18:07;99208.09;;;20.42;100.00
50123;BME280;36021;48.670;6.184;2022-07-30T05:20:37;99221.50;;;20.49;100.00
50123;BME280;36021;48.670;6.184;2022-07-30T05:23:15;99215.28;;;20.55;100.00
50123;BME280;36021;48.670;6.184;2022-07-30T05:25:47;99226.50;;;20.55;100.00
50123;BME280;36021;48.670;6.184;2022-07-30T05:28:16;99216.44;;;20.26;100.00
50123;BME280;36021;48.670;6.184;2022-07-30T05:30:43;99213.44;;;20.07;100.00
50123;BME280;36021;48.670;6.184;2022-07-30T05:33:12;99215.28;;;20.03;100.00
50123;BME280;36021;48.670;6.184;2022-07-30T05:35:37;99215.97;;;20.12;100.00
50123;BME280;36021;48.670;6.184;2022-07-30T05:38:04;99220.19;;;20.18;100.00
50123;BME280;36021;48.670;6.184;2022-07-30T05:40:39;99214.31;;;20.36;100.00
50123;BME280;36021;48.670;6.184;2022-07-30T05:43:27;99216.72;;;20.49;100.00
50123;BME280;36021;48.670;6.184;2022-07-30T05:45:53;99207.56;;;20.64;100.00
50123;BME280;36021;48.670;6.184;2022-07-30T05:48:21;99210.19;;;20.73;100.00
50123;BME280;36021;48.670;6.184;2022-07-30T05:50:48;99203.72;;;20.85;100.00
50123;BME280;36021;48.670;6.184;2022-07-30T05:53:13;99207.63;;;20.96;100.00
50123;BME280;36021;48.670;6.184;2022-07-30T05:56:11;99212.63;;;20.74;100.00
50123;BME280;36021;48.670;6.184;2022-07-30T05:59:00;99205.66;;;20.96;100.00
50123;BME280;36021;48.670;6.184;2022-07-30T06:01:48;99209.66;;;21.11;100.00
50123;BME280;36021;48.670;6.184;2022-07-30T06:04:19;99211.41;;;21.15;100.00
50123;BME280;36021;48.670;6.184;2022-07-30T06:06:50;99210.97;;;21.29;100.00
50123;BME280;36021;48.670;6.184;2022-07-30T06:09:16;99214.84;;;21.40;100.00
50123;BME280;36021;48.670;6.184;2022-07-30T06:11:41;99217.56;;;21.52;100.00
50123;BME280;36021;48.670;6.184;2022-07-30T06:14:07;99221.09;;;21.49;100.00
50123;BME280;36021;48.670;6.184;2022-07-30T06:16:34;99222.16;;;21.60;100.00
50123;BME280;36021;48.670;6.184;2022-07-30T06:19:01;99216.84;;;21.55;100.00
50123;BME280;36021;48.670;6.184;2022-07-30T06:21:39;99219.81;;;21.62;100.00
50123;BME280;36021;48.670;6.184;2022-07-30T06:24:08;99221.63;;;21.70;100.00
50123;BME280;36021;48.670;6.184;2022-07-30T06:26:57;99230.41;;;21.38;100.00
50123;BME280;36021;48.670;6.184;2022-07-30T06:29:23;99225.84;;;21.17;100.00
50123;BME280;36021;48.670;6.184;2022-07-30T06:31:49;99231.88;;;21.04;100.00
50123;BME280;36021;48.670;6.184;2022-07-30T06:34:15;99230.97;;;21.43;100.00
50123;BME280;36021;48.670;6.184;2022-07-30T06:36:41;99234.72;;;21.66;100.00
50123;BME280;36021;48.670;6.184;2022-07-30T06:39:13;99232.94;;;21.74;100.00
50123;BME280;36021;48.670;6.184;2022-07-30T06:41:56;99235.56;;;21.51;100.00
50123;BME280;36021;48.670;6.184;2022-07-30T06:44:26;99233.22;;;21.69;100.00
50123;BME280;36021;48.670;6.184;2022-07-30T06:47:22;99239.00;;;21.92;100.00
50123;BME280;36021;48.670;6.184;2022-07-30T06:49:55;99235.50;;;22.14;100.00
50123;BME280;36021;48.670;6.184;2022-07-30T06:52:23;99240.56;;;22.24;100.00
50123;BME280;36021;48.670;6.184;2022-07-30T06:54:51;99239.66;;;22.20;100.00
50123;BME280;36021;48.670;6.184;2022-07-30T06:57:26;99240.84;;;22.19;100.00
50123;BME280;36021;48.670;6.184;2022-07-30T06:59:52;99236.13;;;22.42;100.00
50123;BME280;36021;48.670;6.184;2022-07-30T07:02:27;99241.31;;;22.40;100.00
50123;BME280;36021;48.670;6.184;2022-07-30T07:05:12;99235.13;;;22.50;100.00
50123;BME280;36021;48.670;6.184;2022-07-30T07:07:41;99236.06;;;22.58;100.00
50123;BME280;36021;48.670;6.184;2022-07-30T07:10:09;99248.09;;;22.74;100.00
50123;BME280;36021;48.670;6.184;2022-07-30T07:12:44;99243.13;;;22.87;100.00
50123;BME280;36021;48.670;6.184;2022-07-30T07:15:12;99242.81;;;22.92;100.00
50123;BME280;36021;48.670;6.184;2022-07-30T07:17:39;99243.19;;;23.09;100.00
50123;BME280;36021;48.670;6.184;2022-07-30T07:20:33;99240.81;;;23.34;100.00
50123;BME280;36021;48.670;6.184;2022-07-30T07:23:04;99241.53;;;23.50;100.00
50123;BME280;36021;48.670;6.184;2022-07-30T07:25:31;99249.06;;;23.65;100.00
50123;BME280;36021;48.670;6.184;2022-07-30T07:27:57;99250.03;;;23.76;100.00
50123;BME280;36021;48.670;6.184;2022-07-30T07:30:23;99247.41;;;23.87;100.00
50123;BME280;36021;48.670;6.184;2022-07-30T07:32:49;99250.06;;;24.03;100.00
50123;BME280;36021;48.670;6.184;2022-07-30T07:35:15;99251.94;;;24.18;100.00
50123;BME280;36021;48.670;6.184;2022-07-30T07:37:43;99240.88;;;24.32;100.00
50123;BME280;36021;48.670;6.184;2022-07-30T07:40:17;99247.03;;;24.41;100.00
50123;BME280;36021;48.670;6.184;2022-07-30T07:42:43;99241.50;;;24.48;100.00
50123;BME280;36021;48.670;6.184;2022-07-30T07:45:09;99246.09;;;24.60;100.00
50123;BME280;36021;48.670;6.184;2022-07-30T07:47:57;99247.41;;;24.69;100.00
50123;BME280;36021;48.670;6.184;2022-07-30T07:50:56;99238.25;;;24.76;100.00
50123;BME280;36021;48.670;6.184;2022-07-30T07:53:25;99240.09;;;24.65;100.00
50123;BME280;36021;48.670;6.184;2022-07-30T07:55:51;99243.75;;;24.65;100.00
50123;BME280;36021;48.670;6.184;2022-07-30T07:58:19;99244.16;;;24.67;100.00
50123;BME280;36021;48.670;6.184;2022-07-30T08:00:45;99238.56;;;24.71;100.00
50123;BME280;36021;48.670;6.184;2022-07-30T08:03:11;99243.88;;;24.76;100.00
50123;BME280;36021;48.670;6.184;2022-07-30T08:05:37;99242.69;;;24.77;100.00
50123;BME280;36021;48.670;6.184;2022-07-30T08:08:16;99245.13;;;24.78;100.00
50123;BME280;36021;48.670;6.184;2022-07-30T08:11:00;99243.53;;;24.81;100.00
50123;BME280;36021;48.670;6.184;2022-07-30T08:13:52;99238.41;;;24.86;100.00
50123;BME280;36021;48.670;6.184;2022-07-30T08:16:33;99234.81;;;24.90;100.00
50123;BME280;36021;48.670;6.184;2022-07-30T08:19:19;99236.19;;;25.03;100.00
50123;BME280;36021;48.670;6.184;2022-07-30T08:21:54;99235.41;;;25.06;100.00
50123;BME280;36021;48.670;6.184;2022-07-30T08:24:20;99236.22;;;25.10;100.00
50123;BME280;36021;48.670;6.184;2022-07-30T08:26:46;99238.34;;;25.20;100.00
50123;BME280;36021;48.670;6.184;2022-07-30T08:29:12;99243.72;;;25.28;100.00
50123;BME280;36021;48.670;6.184;2022-07-30T08:31:37;99237.63;;;25.26;100.00
50123;BME280;36021;48.670;6.184;2022-07-30T08:34:03;99245.34;;;25.33;100.00
50123;BME280;36021;48.670;6.184;2022-07-30T08:36:29;99241.78;;;25.39;100.00
50123;BME280;36021;48.670;6.184;2022-07-30T08:38:54;99248.28;;;25.44;100.00
50123;BME280;36021;48.670;6.184;2022-07-30T08:41:21;99245.13;;;25.49;100.00
50123;BME280;36021;48.670;6.184;2022-07-30T08:43:49;99250.84;;;25.52;100.00
50123;BME280;36021;48.670;6.184;2022-07-30T08:46:17;99241.66;;;25.66;100.00
50123;BME280;36021;48.670;6.184;2022-07-30T08:48:54;99253.44;;;25.71;100.00
50123;BME280;36021;48.670;6.184;2022-07-30T08:51:21;99247.00;;;25.74;100.00
50123;BME280;36021;48.670;6.184;2022-07-30T08:54:00;99247.84;;;25.78;100.00
50123;BME280;36021;48.670;6.184;2022-07-30T08:56:27;99241.38;;;25.78;100.00
50123;BME280;36021;48.670;6.184;2022-07-30T08:58:56;99241.78;;;25.80;100.00
50123;BME280;36021;48.670;6.184;2022-07-30T09:01:22;99252.78;;;25.92;100.00
50123;BME280;36021;48.670;6.184;2022-07-30T09:03:48;99245.56;;;26.02;100.00
50123;BME280;36021;48.670;6.184;2022-07-30T09:06:14;99252.81;;;25.99;100.00
50123;BME280;36021;48.670;6.184;2022-07-30T09:08:41;99246.03;;;26.07;100.00
50123;BME280;36021;48.670;6.184;2022-07-30T09:11:07;99245.28;;;26.14;100.00
50123;BME280;36021;48.670;6.184;2022-07-30T09:13:35;99254.31;;;26.30;100.00
50123;BME280;36021;48.670;6.184;2022-07-30T09:16:04;99253.16;;;26.41;100.00
50123;BME280;36021;48.670;6.184;2022-07-30T09:18:37;99255.63;;;26.50;100.00
50123;BME280;36021;48.670;6.184;2022-07-30T09:21:15;99252.44;;;26.59;100.00
50123;BME280;36021;48.670;6.184;2022-07-30T09:24:02;99257.38;;;26.76;100.00
50123;BME280;36021;48.670;6.184;2022-07-30T09:27:00;99255.06;;;26.92;100.00
50123;BME280;36021;48.670;6.184;2022-07-30T09:29:56;99253.50;;;27.23;100.00
50123;BME280;36021;48.670;6.184;2022-07-30T09:32:49;99251.13;;;27.28;100.00
50123;BME280;36021;48.670;6.184;2022-07-30T09:35:34;99244.66;;;27.35;100.00
50123;BME280;36021;48.670;6.184;2022-07-30T09:38:10;99250.78;;;27.51;100.00
50123;BME280;36021;48.670;6.184;2022-07-30T09:40:55;99248.78;;;27.76;100.00
50123;BME280;36021;48.670;6.184;2022-07-30T09:43:49;99247.56;;;27.77;100.00
50123;BME280;36021;48.670;6.184;2022-07-30T09:46:47;99251.19;;;27.92;100.00
50123;BME280;36021;48.670;6.184;2022-07-30T09:49:30;99247.97;;;27.90;100.00
50123;BME280;36021;48.670;6.184;2022-07-30T09:51:57;99260.94;;;27.87;100.00
50123;BME280;36021;48.670;6.184;2022-07-30T09:54:49;99255.66;;;27.75;100.00
50123;BME280;36021;48.670;6.184;2022-07-30T09:57:17;99257.66;;;27.78;100.00
50123;BME280;36021;48.670;6.184;2022-07-30T09:59:42;99250.78;;;27.76;100.00
50123;BME280;36021;48.670;6.184;2022-07-30T10:02:08;99254.44;;;27.76;100.00
50123;BME280;36021;48.670;6.184;2022-07-30T10:04:52;99245.53;;;27.67;100.00
50123;BME280;36021;48.670;6.184;2022-07-30T10:07:20;99247.97;;;27.51;100.00
50123;BME280;36021;48.670;6.184;2022-07-30T10:09:47;99243.53;;;27.71;100.00
50123;BME280;36021;48.670;6.184;2022-07-30T10:12:14;99241.50;;;27.93;100.00
50123;BME280;36021;48.670;6.184;2022-07-30T10:14:45;99248.78;;;28.12;100.00
50123;BME280;36021;48.670;6.184;2022-07-30T10:17:14;99236.63;;;28.08;100.00
50123;BME280;36021;48.670;6.184;2022-07-30T10:19:48;99243.94;;;28.16;100.00
50123;BME280;36021;48.670;6.184;2022-07-30T10:22:34;99231.78;;;28.12;100.00
50123;BME280;36021;48.670;6.184;2022-07-30T10:25:01;99230.94;;;28.32;100.00
50123;BME280;36021;48.670;6.184;2022-07-30T10:27:46;99228.06;;;28.47;100.00
50123;BME280;36021;48.670;6.184;2022-07-30T10:30:32;99226.06;;;28.43;100.00
50123;BME280;36021;48.670;6.184;2022-07-30T10:32:58;99227.72;;;28.27;100.00
50123;BME280;36021;48.670;6.184;2022-07-30T10:35:25;99224.47;;;28.32;100.00
50123;BME280;36021;48.670;6.184;2022-07-30T10:37:51;99228.47;;;28.41;100.00
50123;BME280;36021;48.670;6.184;2022-07-30T10:40:28;99218.31;;;28.55;100.00
50123;BME280;36021;48.670;6.184;2022-07-30T10:48:32;99216.31;;;28.48;100.00
50123;BME280;36021;48.670;6.184;2022-07-30T10:50:58;99223.59;;;28.56;100.00
50123;BME280;36021;48.670;6.184;2022-07-30T10:53:44;99229.63;;;28.62;100.00
50123;BME280;36021;48.670;6.184;2022-07-30T10:56:23;99213.00;;;28.64;100.00
50123;BME280;36021;48.670;6.184;2022-07-30T10:59:15;99216.28;;;28.66;100.00
50123;BME280;36021;48.670;6.184;2022-07-30T11:04:20;99213.63;;;29.10;100.00
50123;BME280;36021;48.670;6.184;2022-07-30T11:06:46;99220.06;;;29.25;100.00
50123;BME280;36021;48.670;6.184;2022-07-30T11:09:34;99203.19;;;29.55;100.00
50123;BME280;36021;48.670;6.184;2022-07-30T11:12:02;99201.13;;;29.63;100.00
50123;BME280;36021;48.670;6.184;2022-07-30T11:17:14;99216.00;;;29.26;100.00
50123;BME280;36021;48.670;6.184;2022-07-30T11:22:32;99215.97;;;29.29;100.00
50123;BME280;36021;48.670;6.184;2022-07-30T11:25:37;99204.19;;;29.31;100.00
50123;BME280;36021;48.670;6.184;2022-07-30T11:27:56;99201.00;;;29.25;100.00
50123;BME280;36021;48.670;6.184;2022-07-30T11:35:39;99190.97;;;29.62;100.00
50123;BME280;36021;48.670;6.184;2022-07-30T11:38:08;99191.84;;;29.55;100.00
50123;BME280;36021;48.670;6.184;2022-07-30T11:41:27;99185.19;;;29.72;100.00
50123;BME280;36021;48.670;6.184;2022-07-30T11:43:31;99183.91;;;29.87;100.00
50123;BME280;36021;48.670;6.184;2022-07-30T11:46:10;99187.41;;;29.51;100.00
50123;BME280;36021;48.670;6.184;2022-07-30T11:48:57;99187.00;;;29.52;100.00
50123;BME280;36021;48.670;6.184;2022-07-30T11:51:23;99188.63;;;29.53;100.00
50123;BME280;36021;48.670;6.184;2022-07-30T11:54:04;99181.06;;;29.87;100.00
50123;BME280;36021;48.670;6.184;2022-07-30T11:56:30;99183.66;;;30.09;100.00
50123;BME280;36021;48.670;6.184;2022-07-30T11:59:05;99188.13;;;30.10;100.00
50123;BME280;36021;48.670;6.184;2022-07-30T12:01:32;99184.22;;;29.96;100.00
50123;BME280;36021;48.670;6.184;2022-07-30T12:04:03;99186.69;;;29.91;100.00
50123;BME280;36021;48.670;6.184;2022-07-30T12:06:29;99180.56;;;29.96;100.00
50123;BME280;36021;48.670;6.184;2022-07-30T12:08:57;99184.19;;;30.00;100.00
50123;BME280;36021;48.670;6.184;2022-07-30T12:11:23;99183.09;;;29.87;100.00
50123;BME280;36021;48.670;6.184;2022-07-30T12:13:58;99190.09;;;29.68;100.00
50123;BME280;36021;48.670;6.184;2022-07-30T12:16:25;99186.34;;;29.82;100.00
50123;BME280;36021;48.670;6.184;2022-07-30T12:18:54;99186.41;;;29.71;100.00
50123;BME280;36021;48.670;6.184;2022-07-30T12:21:20;99182.53;;;30.03;100.00
50123;BME280;36021;48.670;6.184;2022-07-30T12:24:15;99187.47;;;29.95;100.00
50123;BME280;36021;48.670;6.184;2022-07-30T12:26:40;99189.59;;;29.87;100.00
50123;BME280;36021;48.670;6.184;2022-07-30T12:29:08;99178.97;;;29.91;100.00
50123;BME280;36021;48.670;6.184;2022-07-30T12:31:36;99174.63;;;30.17;100.00
50123;BME280;36021;48.670;6.184;2022-07-30T12:34:04;99167.56;;;30.32;100.00
50123;BME280;36021;48.670;6.184;2022-07-30T12:36:34;99176.06;;;29.98;100.00
50123;BME280;36021;48.670;6.184;2022-07-30T12:39:01;99159.47;;;29.93;100.00
50123;BME280;36021;48.670;6.184;2022-07-30T12:41:41;99159.25;;;29.70;100.00
50123;BME280;36021;48.670;6.184;2022-07-30T12:44:07;99155.59;;;30.11;100.00
50123;BME280;36021;48.670;6.184;2022-07-30T12:46:38;99164.00;;;30.25;100.00
50123;BME280;36021;48.670;6.184;2022-07-30T12:49:06;99160.22;;;30.35;100.00
50123;BME280;36021;48.670;6.184;2022-07-30T12:51:39;99167.84;;;30.45;100.00
50123;BME280;36021;48.670;6.184;2022-07-30T12:54:16;99165.13;;;30.68;100.00
50123;BME280;36021;48.670;6.184;2022-07-30T12:56:58;99169.16;;;30.71;100.00
50123;BME280;36021;48.670;6.184;2022-07-30T12:59:24;99164.75;;;30.96;100.00
50123;BME280;36021;48.670;6.184;2022-07-30T13:01:50;99164.50;;;30.84;100.00
50123;BME280;36021;48.670;6.184;2022-07-30T13:04:18;99159.34;;;30.75;100.00
50123;BME280;36021;48.670;6.184;2022-07-30T13:06:43;99161.06;;;30.69;100.00
50123;BME280;36021;48.670;6.184;2022-07-30T13:09:26;99171.00;;;30.54;100.00
50123;BME280;36021;48.670;6.184;2022-07-30T13:11:52;99170.78;;;30.72;100.00
50123;BME280;36021;48.670;6.184;2022-07-30T13:14:17;99163.88;;;31.57;100.00
50123;BME280;36021;48.670;6.184;2022-07-30T13:16:45;99167.81;;;32.52;100.00
50123;BME280;36021;48.670;6.184;2022-07-30T13:19:13;99154.38;;;33.44;97.35
50123;BME280;36021;48.670;6.184;2022-07-30T13:21:40;99143.53;;;34.16;94.54
50123;BME280;36021;48.670;6.184;2022-07-30T13:24:07;99147.44;;;35.05;91.72
50123;BME280;36021;48.670;6.184;2022-07-30T13:26:35;99159.44;;;36.14;85.40
50123;BME280;36021;48.670;6.184;2022-07-30T13:29:01;99161.97;;;36.89;83.26
50123;BME280;36021;48.670;6.184;2022-07-30T13:31:26;99146.75;;;37.90;77.89
50123;BME280;36021;48.670;6.184;2022-07-30T13:33:52;99156.72;;;36.88;81.57
50123;BME280;36021;48.670;6.184;2022-07-30T13:36:18;99152.03;;;36.60;84.06